Pilot Boat 183 — FT7120 — position and weather

sailwx.info

Track history (hours):
 
Tides and Currents Weather Stations Pressure Air Temp Water Temp Dewpoint Dewpoint Depression Visibility Wind Speed Wind Dir Waves Ship Positions

Pilot Boat 183

Last reported at 2015-Jul-29 05:32 UTC. Time now 2015-Aug-02 22:30 UTC.
Position N 43°17' E 005°19'.

Length 16 m; draft 1 m.

Type: Pilot. MMSI: 227005760.

Date/timePositionNaut miles runAvg speedWind from/ knotsBaromVisibWave heightAir tempDewpointWater temp
2015-Jul-29 05:32N 43°17' E 005°19'0 0.5
2015-Jul-29 04:33N 43°17' E 005°19'4 3.6
2015-Jul-29 03:24N 43°21' E 005°20'4 0.3
2015-Jul-28 12:22N 43°17' E 005°19'4 4.6
2015-Jul-28 11:30N 43°21' E 005°20'4 1.3
2015-Jul-28 08:23N 43°17' E 005°19'2 1.3
2015-Jul-28 06:33N 43°18' E 005°22'4 3.6
2015-Jul-28 05:33N 43°21' E 005°20'4 0.1
2015-Jul-26 16:21N 43°18' E 005°22'2 3.0
2015-Jul-26 15:33N 43°17' E 005°19'2 0.3
2015-Jul-26 07:33N 43°18' E 005°21'1 0.7
2015-Jul-26 05:33N 43°17' E 005°20'1 1.1
2015-Jul-26 04:33N 43°18' E 005°19'1 0.1
2015-Jul-25 20:21N 43°17' E 005°19'1 1.6
2015-Jul-25 19:33N 43°17' E 005°20'1 1.1
2015-Jul-25 18:33N 43°17' E 005°19'2 2.4
2015-Jul-25 17:34N 43°18' E 005°22'1 0.8
2015-Jul-25 16:24N 43°19' E 005°22'1 1.3
2015-Jul-25 15:33N 43°19' E 005°20'2 1.5
2015-Jul-25 14:11N 43°21' E 005°20'4 6.6
2015-Jul-25 13:33N 43°17' E 005°19'0 0.0
2015-Jul-25 10:15N 43°17' E 005°19'  
2015-Jul-22 04:33N 43°18' E 005°21'2 0.1
2015-Jul-20 18:24N 43°17' E 005°19'  
Track history (hours):
 
Tides and Currents Weather Stations Pressure Air Temp Water Temp Dewpoint Dewpoint Depression Visibility Wind Speed Wind Dir Waves Ship Positions

Pilot Boat 183

Last reported at 2015-Jul-29 05:32 UTC. Time now 2015-Aug-02 22:30 UTC.
Position N 43°17' E 005°19'.

Length 16 m; draft 1 m.

Type: Pilot. MMSI: 227005760.

Date/timePositionNaut miles runAvg speedWind from/ knotsBaromVisibWave heightAir tempDewpointWater temp
2015-Jul-29 05:32N 43°17' E 005°19'0 0.5
2015-Jul-29 04:33N 43°17' E 005°19'4 3.6
2015-Jul-29 03:24N 43°21' E 005°20'4 0.3
2015-Jul-28 12:22N 43°17' E 005°19'4 4.6
2015-Jul-28 11:30N 43°21' E 005°20'4 1.3
2015-Jul-28 08:23N 43°17' E 005°19'2 1.3
2015-Jul-28 06:33N 43°18' E 005°22'4 3.6
2015-Jul-28 05:33N 43°21' E 005°20'4 0.1
2015-Jul-26 16:21N 43°18' E 005°22'2 3.0
2015-Jul-26 15:33N 43°17' E 005°19'2 0.3
2015-Jul-26 07:33N 43°18' E 005°21'1 0.7
2015-Jul-26 05:33N 43°17' E 005°20'1 1.1
2015-Jul-26 04:33N 43°18' E 005°19'1 0.1
2015-Jul-25 20:21N 43°17' E 005°19'1 1.6
2015-Jul-25 19:33N 43°17' E 005°20'1 1.1
2015-Jul-25 18:33N 43°17' E 005°19'2 2.4
2015-Jul-25 17:34N 43°18' E 005°22'1 0.8
2015-Jul-25 16:24N 43°19' E 005°22'1 1.3
2015-Jul-25 15:33N 43°19' E 005°20'2 1.5
2015-Jul-25 14:11N 43°21' E 005°20'4 6.6
2015-Jul-25 13:33N 43°17' E 005°19'0 0.0
2015-Jul-25 10:15N 43°17' E 005°19'  
2015-Jul-22 04:33N 43°18' E 005°21'2 0.1
2015-Jul-20 18:24N 43°17' E 005°19'  

Dump ship's entire track history